< < Back
Terminal Aerodrome Forecast


Current Version              Previous Versions:   1  2  3  4  5  6  7  8  9  

Terminal Aerodrome Forecast

021
FTUS44 KMRX 010805 AAA
TAFCHA
TAF AMD
KCHA 010805Z 0108/0206 00000KT P6SM BKN080
      TEMPO 0108/0112 4SM BR
     FM011400 21006KT P6SM SCT050
     FM020000 00000KT P6SM SCT250=



Latest METAR

435
SAUS80 KWBC 011100 RRG
MTRCHA
METAR KCHA 011053Z 00000KT 10SM BKN150 BKN170 23/21 A3012 RMK AO2 SLP191
T02280211 $


USA.gov is the U.S. government's official web portal to all federal, state and local government web resources and services.